createdAt,value
2022-08-22T02:29:17.012Z,26.80
2022-08-22T02:31:57.422Z,24.90
2022-08-22T02:35:11.466Z,26.58
2022-08-22T04:23:21.539Z,40.63
2022-08-22T04:26:54.370Z,41.15
2022-08-22T04:29:53.408Z,40.78
2022-08-22T16:04:37.463Z,4.75
2022-08-22T16:12:34.914Z,4.00
2022-08-22T18:03:52.895Z,4.03
2022-08-22T18:06:30.182Z,3.50
2022-08-22T18:09:16.814Z,3.90
2022-08-22T18:11:54.782Z,4.38
2022-08-22T18:15:00.187Z,4.20
2022-08-22T18:17:47.470Z,3.80
2022-08-22T18:20:26.947Z,4.18
2022-08-22T18:23:39.048Z,4.60
2022-08-22T18:27:04.267Z,4.53
2022-08-22T18:29:52.251Z,4.25
2022-08-22T18:40:07.799Z,4.60
2022-08-22T18:43:09.024Z,4.22
2022-08-22T18:51:26.473Z,4.80
2022-08-22T18:54:26.954Z,4.82
2022-08-22T19:01:24.629Z,4.72
2022-08-22T19:04:22.206Z,5.85
2022-08-22T19:06:53.050Z,5.63
2022-08-22T19:12:36.452Z,5.35
2022-08-22T19:15:43.899Z,5.90
2022-08-22T19:18:33.355Z,5.70
2022-08-22T19:21:45.620Z,6.18
2022-08-22T19:24:37.036Z,6.25
2022-08-22T19:27:07.383Z,6.35
2022-08-22T19:29:34.720Z,7.03
2022-08-22T19:32:05.964Z,6.18
2022-08-22T19:34:47.930Z,6.28
2022-08-22T19:37:32.161Z,7.60
2022-08-22T19:40:32.679Z,7.28
2022-08-22T19:43:41.934Z,7.22
2022-08-22T19:47:04.856Z,8.23
2022-08-22T19:49:32.157Z,7.97
2022-08-22T19:52:20.388Z,7.88
2022-08-22T19:55:11.319Z,8.32
2022-08-22T19:57:57.419Z,7.95
2022-08-22T20:00:50.290Z,8.32
2022-08-22T20:03:37.675Z,7.85
2022-08-22T20:06:33.534Z,8.57
2022-08-22T20:09:07.534Z,8.57
2022-08-22T20:11:50.038Z,9.50
2022-08-22T20:14:31.058Z,9.40
2022-08-22T20:17:02.113Z,9.13
2022-08-22T20:19:39.388Z,9.13
2022-08-22T20:22:30.309Z,9.30
2022-08-22T20:27:36.328Z,9.93
2022-08-22T20:30:16.265Z,9.45
2022-08-22T20:32:51.643Z,9.73
2022-08-22T20:35:26.969Z,9.82
2022-08-22T20:38:06.666Z,9.88
2022-08-22T20:40:59.441Z,10.38
2022-08-22T20:43:36.860Z,10.70
2022-08-22T20:46:25.339Z,10.40
2022-08-22T20:49:01.132Z,11.48
2022-08-22T20:51:32.491Z,10.57
2022-08-22T20:54:15.582Z,10.88
2022-08-22T20:56:58.238Z,12.02
2022-08-22T20:59:36.258Z,10.93
2022-08-22T21:02:24.609Z,10.80
2022-08-22T21:04:57.174Z,10.70
2022-08-22T21:07:31.351Z,12.05
2022-08-22T21:10:25.281Z,10.88
2022-08-22T21:13:05.236Z,11.23
2022-08-22T21:15:39.607Z,11.98
2022-08-22T21:18:08.072Z,12.15
2022-08-22T21:20:37.783Z,11.45
2022-08-22T21:23:14.668Z,12.10
2022-08-22T21:26:12.720Z,12.45
2022-08-22T21:28:57.000Z,12.43
2022-08-22T21:31:28.480Z,12.10
2022-08-22T21:33:57.185Z,13.35
2022-08-22T21:36:32.015Z,13.73
2022-08-22T21:39:04.375Z,12.85
2022-08-22T21:41:49.603Z,13.85
2022-08-22T21:48:38.058Z,13.60
2022-08-22T21:51:23.510Z,13.82
2022-08-22T21:53:53.409Z,14.77
2022-08-22T21:56:38.164Z,14.90
2022-08-22T21:59:50.607Z,15.40
2022-08-22T22:02:49.879Z,16.05
2022-08-22T22:06:07.796Z,15.57
2022-08-22T22:08:35.216Z,16.17
2022-08-22T22:11:08.708Z,16.65
2022-08-22T22:13:36.159Z,14.98
2022-08-22T22:16:07.043Z,16.80
2022-08-22T22:18:36.128Z,17.88
2022-08-22T22:21:04.186Z,16.88
2022-08-22T22:23:31.651Z,18.10
2022-08-22T22:26:03.173Z,17.90
2022-08-22T22:28:38.206Z,18.63
2022-08-22T22:31:05.816Z,18.33
2022-08-22T22:33:37.007Z,17.88
2022-08-22T22:38:39.516Z,18.63
2022-08-22T22:41:07.752Z,18.35
2022-08-22T22:43:35.070Z,19.23
2022-08-22T22:46:04.769Z,20.10
2022-08-22T22:48:33.037Z,18.83
2022-08-22T22:51:06.272Z,18.65
2022-08-22T22:53:38.323Z,19.75
2022-08-22T22:56:09.233Z,20.30
2022-08-22T22:58:38.407Z,19.27
2022-08-22T23:01:10.324Z,19.70
2022-08-22T23:03:38.074Z,20.55
2022-08-22T23:06:14.979Z,19.80
2022-08-22T23:08:42.605Z,19.30
2022-08-22T23:11:17.945Z,18.88
2022-08-22T23:13:45.711Z,20.48
2022-08-22T23:16:16.539Z,20.38
2022-08-22T23:18:44.728Z,19.55
2022-08-22T23:21:30.113Z,19.48
2022-08-22T23:23:59.456Z,19.98
2022-08-22T23:26:29.042Z,18.58
2022-08-22T23:28:57.471Z,19.60
2022-08-22T23:31:35.584Z,19.70
2022-08-22T23:34:25.439Z,18.92
2022-08-22T23:36:56.190Z,18.95
2022-08-22T23:39:24.983Z,19.02
2022-08-22T23:41:52.866Z,19.48
2022-08-22T23:44:22.771Z,19.33
2022-08-22T23:46:51.098Z,18.40
2022-08-22T23:49:19.707Z,19.00
2022-08-22T23:51:48.727Z,18.77
2022-08-22T23:54:16.202Z,17.80
2022-08-22T23:56:50.539Z,18.15
2022-08-22T23:59:23.628Z,18.02
